sensor_id;sensor_type;location;lat;lon;timestamp;P1;durP1;ratioP1;P2;durP2;ratioP2
31808;SDS011;18379;48.208;-1.518;2022-09-17T00:04:32;39.13;;;36.83;;
31808;SDS011;18379;48.208;-1.518;2022-09-17T00:09:33;39.47;;;37.17;;
31808;SDS011;18379;48.208;-1.518;2022-09-17T00:14:34;38.47;;;36.37;;
31808;SDS011;18379;48.208;-1.518;2022-09-17T00:19:34;38.40;;;36.40;;
31808;SDS011;18379;48.208;-1.518;2022-09-17T00:24:35;38.63;;;36.40;;
31808;SDS011;18379;48.208;-1.518;2022-09-17T00:29:36;38.57;;;36.57;;
31808;SDS011;18379;48.208;-1.518;2022-09-17T00:34:37;38.70;;;36.60;;
31808;SDS011;18379;48.208;-1.518;2022-09-17T00:39:38;41.30;;;38.73;;
31808;SDS011;18379;48.208;-1.518;2022-09-17T00:49:42;41.10;;;38.63;;
31808;SDS011;18379;48.208;-1.518;2022-09-17T00:54:47;50.33;;;46.90;;
31808;SDS011;18379;48.208;-1.518;2022-09-17T00:59:58;38.93;;;36.63;;
31808;SDS011;18379;48.208;-1.518;2022-09-17T01:04:59;38.40;;;36.30;;
31808;SDS011;18379;48.208;-1.518;2022-09-17T01:10:09;38.37;;;36.30;;
31808;SDS011;18379;48.208;-1.518;2022-09-17T01:31:20;40.80;;;38.30;;
31808;SDS011;18379;48.208;-1.518;2022-09-17T01:41:52;40.67;;;38.20;;
31808;SDS011;18379;48.208;-1.518;2022-09-17T01:47:42;39.10;;;36.80;;
31808;SDS011;18379;48.208;-1.518;2022-09-17T01:52:31;38.23;;;36.23;;
31808;SDS011;18379;48.208;-1.518;2022-09-17T01:57:35;38.23;;;35.97;;
31808;SDS011;18379;48.208;-1.518;2022-09-17T02:07:49;41.33;;;38.83;;
31808;SDS011;18379;48.208;-1.518;2022-09-17T02:13:07;44.30;;;41.33;;
31808;SDS011;18379;48.208;-1.518;2022-09-17T02:23:47;41.33;;;38.80;;
31808;SDS011;18379;48.208;-1.518;2022-09-17T02:28:54;46.67;;;43.70;;
31808;SDS011;18379;48.208;-1.518;2022-09-17T02:33:59;38.03;;;36.13;;
31808;SDS011;18379;48.208;-1.518;2022-09-17T02:39:02;38.67;;;36.37;;
31808;SDS011;18379;48.208;-1.518;2022-09-17T03:00:19;44.73;;;41.87;;
31808;SDS011;18379;48.208;-1.518;2022-09-17T03:05:21;41.20;;;38.60;;
31808;SDS011;18379;48.208;-1.518;2022-09-17T03:10:24;40.23;;;37.80;;
31808;SDS011;18379;48.208;-1.518;2022-09-17T03:15:32;36.73;;;34.83;;
31808;SDS011;18379;48.208;-1.518;2022-09-17T03:20:33;37.23;;;35.33;;
31808;SDS011;18379;48.208;-1.518;2022-09-17T03:25:33;39.53;;;37.17;;
31808;SDS011;18379;48.208;-1.518;2022-09-17T03:30:34;36.93;;;34.93;;
31808;SDS011;18379;48.208;-1.518;2022-09-17T03:35:35;37.77;;;35.57;;
31808;SDS011;18379;48.208;-1.518;2022-09-17T03:40:36;37.37;;;35.47;;
31808;SDS011;18379;48.208;-1.518;2022-09-17T03:45:38;37.93;;;35.73;;
31808;SDS011;18379;48.208;-1.518;2022-09-17T03:50:38;37.53;;;35.50;;
31808;SDS011;18379;48.208;-1.518;2022-09-17T03:55:39;38.37;;;36.20;;
31808;SDS011;18379;48.208;-1.518;2022-09-17T04:00:40;39.63;;;37.10;;
31808;SDS011;18379;48.208;-1.518;2022-09-17T04:05:42;46.00;;;42.90;;
31808;SDS011;18379;48.208;-1.518;2022-09-17T04:10:43;40.30;;;37.57;;
31808;SDS011;18379;48.208;-1.518;2022-09-17T04:15:45;45.27;;;42.33;;
31808;SDS011;18379;48.208;-1.518;2022-09-17T04:20:46;41.50;;;39.03;;
31808;SDS011;18379;48.208;-1.518;2022-09-17T04:25:47;41.87;;;39.20;;
31808;SDS011;18379;48.208;-1.518;2022-09-17T04:30:48;40.83;;;38.23;;
31808;SDS011;18379;48.208;-1.518;2022-09-17T04:35:49;39.97;;;37.50;;
31808;SDS011;18379;48.208;-1.518;2022-09-17T04:40:50;41.77;;;39.03;;
31808;SDS011;18379;48.208;-1.518;2022-09-17T04:45:51;40.07;;;37.60;;
31808;SDS011;18379;48.208;-1.518;2022-09-17T04:50:52;45.37;;;42.50;;
31808;SDS011;18379;48.208;-1.518;2022-09-17T04:55:52;51.10;;;47.50;;
31808;SDS011;18379;48.208;-1.518;2022-09-17T05:00:53;52.57;;;48.67;;
31808;SDS011;18379;48.208;-1.518;2022-09-17T05:05:54;51.70;;;47.60;;
31808;SDS011;18379;48.208;-1.518;2022-09-17T05:10:55;52.23;;;48.43;;
31808;SDS011;18379;48.208;-1.518;2022-09-17T05:15:56;46.83;;;43.77;;
31808;SDS011;18379;48.208;-1.518;2022-09-17T05:20:57;43.17;;;40.53;;
31808;SDS011;18379;48.208;-1.518;2022-09-17T05:25:58;41.53;;;38.83;;
31808;SDS011;18379;48.208;-1.518;2022-09-17T05:31:00;36.77;;;34.70;;
31808;SDS011;18379;48.208;-1.518;2022-09-17T05:36:01;36.67;;;34.63;;
31808;SDS011;18379;48.208;-1.518;2022-09-17T05:41:03;35.87;;;34.03;;
31808;SDS011;18379;48.208;-1.518;2022-09-17T05:46:05;35.97;;;34.07;;
31808;SDS011;18379;48.208;-1.518;2022-09-17T05:51:06;36.63;;;34.63;;
31808;SDS011;18379;48.208;-1.518;2022-09-17T05:56:07;35.80;;;34.00;;
31808;SDS011;18379;48.208;-1.518;2022-09-17T06:01:08;37.67;;;35.47;;
31808;SDS011;18379;48.208;-1.518;2022-09-17T06:06:15;38.90;;;36.63;;
31808;SDS011;18379;48.208;-1.518;2022-09-17T06:11:15;38.87;;;36.47;;
31808;SDS011;18379;48.208;-1.518;2022-09-17T06:16:16;42.33;;;39.60;;
31808;SDS011;18379;48.208;-1.518;2022-09-17T06:21:17;40.63;;;37.87;;
31808;SDS011;18379;48.208;-1.518;2022-09-17T06:26:20;40.07;;;37.43;;
31808;SDS011;18379;48.208;-1.518;2022-09-17T06:31:21;43.27;;;40.50;;
31808;SDS011;18379;48.208;-1.518;2022-09-17T06:36:22;43.27;;;40.50;;
31808;SDS011;18379;48.208;-1.518;2022-09-17T06:41:23;43.03;;;40.07;;
31808;SDS011;18379;48.208;-1.518;2022-09-17T06:46:23;43.20;;;40.37;;
31808;SDS011;18379;48.208;-1.518;2022-09-17T06:51:24;39.30;;;36.90;;
31808;SDS011;18379;48.208;-1.518;2022-09-17T06:56:25;39.00;;;36.70;;
31808;SDS011;18379;48.208;-1.518;2022-09-17T07:01:26;41.90;;;39.33;;
31808;SDS011;18379;48.208;-1.518;2022-09-17T07:06:27;38.77;;;36.67;;
31808;SDS011;18379;48.208;-1.518;2022-09-17T07:11:29;39.20;;;36.97;;
31808;SDS011;18379;48.208;-1.518;2022-09-17T07:16:30;39.37;;;37.17;;
31808;SDS011;18379;48.208;-1.518;2022-09-17T07:21:35;37.80;;;35.60;;
31808;SDS011;18379;48.208;-1.518;2022-09-17T07:26:36;38.53;;;36.33;;
31808;SDS011;18379;48.208;-1.518;2022-09-17T07:31:37;50.57;;;45.67;;
31808;SDS011;18379;48.208;-1.518;2022-09-17T07:36:37;37.70;;;35.80;;
31808;SDS011;18379;48.208;-1.518;2022-09-17T07:41:39;38.20;;;36.17;;
31808;SDS011;18379;48.208;-1.518;2022-09-17T07:46:39;39.17;;;37.00;;
31808;SDS011;18379;48.208;-1.518;2022-09-17T07:51:40;44.70;;;41.87;;
31808;SDS011;18379;48.208;-1.518;2022-09-17T07:56:42;48.10;;;44.97;;
31808;SDS011;18379;48.208;-1.518;2022-09-17T08:01:44;49.53;;;46.17;;
31808;SDS011;18379;48.208;-1.518;2022-09-17T08:06:44;51.80;;;48.10;;
31808;SDS011;18379;48.208;-1.518;2022-09-17T08:11:47;50.40;;;47.10;;
31808;SDS011;18379;48.208;-1.518;2022-09-17T08:16:52;47.70;;;44.50;;
31808;SDS011;18379;48.208;-1.518;2022-09-17T08:21:58;49.23;;;45.70;;
31808;SDS011;18379;48.208;-1.518;2022-09-17T08:26:59;41.00;;;38.80;;
31808;SDS011;18379;48.208;-1.518;2022-09-17T08:32:01;40.80;;;38.67;;
31808;SDS011;18379;48.208;-1.518;2022-09-17T08:37:03;40.93;;;38.23;;
31808;SDS011;18379;48.208;-1.518;2022-09-17T08:47:44;52.13;;;48.77;;
31808;SDS011;18379;48.208;-1.518;2022-09-17T08:52:51;49.67;;;46.50;;
31808;SDS011;18379;48.208;-1.518;2022-09-17T09:09:14;40.13;;;37.93;;
31808;SDS011;18379;48.208;-1.518;2022-09-17T09:14:30;51.63;;;48.23;;
31808;SDS011;18379;48.208;-1.518;2022-09-17T09:19:51;51.53;;;48.03;;
31808;SDS011;18379;48.208;-1.518;2022-09-17T09:30:16;54.63;;;50.93;;
31808;SDS011;18379;48.208;-1.518;2022-09-17T09:35:29;53.00;;;49.57;;
31808;SDS011;18379;48.208;-1.518;2022-09-17T09:40:52;42.37;;;40.17;;
31808;SDS011;18379;48.208;-1.518;2022-09-17T09:51:38;42.73;;;40.53;;
31808;SDS011;18379;48.208;-1.518;2022-09-17T09:57:04;43.20;;;40.80;;
31808;SDS011;18379;48.208;-1.518;2022-09-17T10:02:21;44.63;;;41.87;;
31808;SDS011;18379;48.208;-1.518;2022-09-17T10:07:23;55.37;;;51.83;;
31808;SDS011;18379;48.208;-1.518;2022-09-17T10:12:24;56.37;;;52.77;;
31808;SDS011;18379;48.208;-1.518;2022-09-17T10:17:25;56.10;;;52.63;;
31808;SDS011;18379;48.208;-1.518;2022-09-17T10:27:38;44.87;;;42.10;;
31808;SDS011;18379;48.208;-1.518;2022-09-17T10:43:48;54.03;;;50.63;;
31808;SDS011;18379;48.208;-1.518;2022-09-17T10:48:53;54.87;;;51.23;;
31808;SDS011;18379;48.208;-1.518;2022-09-17T11:00:15;44.20;;;41.80;;
31808;SDS011;18379;48.208;-1.518;2022-09-17T11:05:28;54.67;;;51.17;;
31808;SDS011;18379;48.208;-1.518;2022-09-17T11:10:45;43.60;;;41.20;;
31808;SDS011;18379;48.208;-1.518;2022-09-17T11:21:31;45.20;;;42.53;;
31808;SDS011;18379;48.208;-1.518;2022-09-17T11:26:51;44.07;;;41.67;;
31808;SDS011;18379;48.208;-1.518;2022-09-17T11:31:59;55.97;;;52.43;;
31808;SDS011;18379;48.208;-1.518;2022-09-17T11:43:06;44.60;;;42.20;;
31808;SDS011;18379;48.208;-1.518;2022-09-17T11:48:12;50.80;;;47.53;;
31808;SDS011;18379;48.208;-1.518;2022-09-17T11:53:20;54.77;;;51.33;;
31808;SDS011;18379;48.208;-1.518;2022-09-17T11:58:44;44.40;;;41.90;;
31808;SDS011;18379;48.208;-1.518;2022-09-17T12:04:00;56.27;;;52.67;;
31808;SDS011;18379;48.208;-1.518;2022-09-17T12:09:16;55.03;;;51.43;;
31808;SDS011;18379;48.208;-1.518;2022-09-17T12:14:23;54.97;;;51.37;;
31808;SDS011;18379;48.208;-1.518;2022-09-17T12:19:45;45.83;;;43.27;;
31808;SDS011;18379;48.208;-1.518;2022-09-17T12:25:01;45.00;;;42.60;;
31808;SDS011;18379;48.208;-1.518;2022-09-17T12:30:07;46.77;;;44.00;;
31808;SDS011;18379;48.208;-1.518;2022-09-17T12:46:10;49.13;;;46.20;;
31808;SDS011;18379;48.208;-1.518;2022-09-17T12:51:45;46.07;;;43.50;;
31808;SDS011;18379;48.208;-1.518;2022-09-17T12:57:00;49.90;;;46.67;;
31808;SDS011;18379;48.208;-1.518;2022-09-17T13:23:42;45.10;;;42.60;;
31808;SDS011;18379;48.208;-1.518;2022-09-17T13:28:49;49.10;;;46.00;;
31808;SDS011;18379;48.208;-1.518;2022-09-17T13:33:55;46.90;;;44.23;;
31808;SDS011;18379;48.208;-1.518;2022-09-17T13:38:57;51.10;;;48.00;;
31808;SDS011;18379;48.208;-1.518;2022-09-17T13:43:59;45.60;;;43.10;;
31808;SDS011;18379;48.208;-1.518;2022-09-17T13:49:05;52.87;;;49.67;;
31808;SDS011;18379;48.208;-1.518;2022-09-17T13:54:13;47.23;;;44.47;;
31808;SDS011;18379;48.208;-1.518;2022-09-17T13:59:26;47.47;;;44.67;;
31808;SDS011;18379;48.208;-1.518;2022-09-17T14:09:48;45.57;;;42.97;;
31808;SDS011;18379;48.208;-1.518;2022-09-17T14:14:54;50.80;;;47.80;;
31808;SDS011;18379;48.208;-1.518;2022-09-17T14:19:55;47.00;;;44.37;;
31808;SDS011;18379;48.208;-1.518;2022-09-17T14:24:56;50.60;;;47.57;;
31808;SDS011;18379;48.208;-1.518;2022-09-17T14:35:03;50.83;;;47.70;;
31808;SDS011;18379;48.208;-1.518;2022-09-17T14:40:18;51.00;;;48.10;;
31808;SDS011;18379;48.208;-1.518;2022-09-17T14:45:25;50.70;;;47.80;;
31808;SDS011;18379;48.208;-1.518;2022-09-17T14:50:26;48.73;;;45.83;;
31808;SDS011;18379;48.208;-1.518;2022-09-17T14:55:31;46.97;;;44.30;;
31808;SDS011;18379;48.208;-1.518;2022-09-17T15:00:32;45.13;;;42.63;;
31808;SDS011;18379;48.208;-1.518;2022-09-17T15:05:46;44.40;;;42.03;;
31808;SDS011;18379;48.208;-1.518;2022-09-17T15:15:57;47.20;;;44.20;;
31808;SDS011;18379;48.208;-1.518;2022-09-17T15:26:39;44.93;;;42.30;;
31808;SDS011;18379;48.208;-1.518;2022-09-17T15:31:42;45.70;;;43.20;;
31808;SDS011;18379;48.208;-1.518;2022-09-17T15:42:25;46.47;;;43.87;;
31808;SDS011;18379;48.208;-1.518;2022-09-17T15:47:33;45.20;;;42.63;;
31808;SDS011;18379;48.208;-1.518;2022-09-17T15:52:34;44.07;;;41.30;;
31808;SDS011;18379;48.208;-1.518;2022-09-17T15:57:35;44.70;;;42.10;;
31808;SDS011;18379;48.208;-1.518;2022-09-17T16:02:36;44.47;;;41.97;;
31808;SDS011;18379;48.208;-1.518;2022-09-17T16:07:36;44.30;;;41.87;;
31808;SDS011;18379;48.208;-1.518;2022-09-17T16:12:38;43.87;;;41.27;;
31808;SDS011;18379;48.208;-1.518;2022-09-17T16:17:43;44.13;;;41.53;;
31808;SDS011;18379;48.208;-1.518;2022-09-17T16:22:44;45.90;;;43.20;;
31808;SDS011;18379;48.208;-1.518;2022-09-17T16:27:48;47.23;;;44.57;;
31808;SDS011;18379;48.208;-1.518;2022-09-17T16:32:52;46.27;;;43.70;;
31808;SDS011;18379;48.208;-1.518;2022-09-17T16:37:54;51.40;;;48.13;;
31808;SDS011;18379;48.208;-1.518;2022-09-17T16:42:58;47.90;;;44.93;;
31808;SDS011;18379;48.208;-1.518;2022-09-17T16:48:00;45.23;;;42.63;;
31808;SDS011;18379;48.208;-1.518;2022-09-17T16:53:02;44.10;;;41.70;;
31808;SDS011;18379;48.208;-1.518;2022-09-17T16:58:03;43.73;;;41.33;;
31808;SDS011;18379;48.208;-1.518;2022-09-17T17:03:04;43.80;;;41.40;;
31808;SDS011;18379;48.208;-1.518;2022-09-17T17:08:06;43.37;;;40.97;;
31808;SDS011;18379;48.208;-1.518;2022-09-17T17:13:09;42.67;;;40.40;;
31808;SDS011;18379;48.208;-1.518;2022-09-17T17:18:10;44.30;;;41.63;;
31808;SDS011;18379;48.208;-1.518;2022-09-17T17:23:11;43.17;;;40.83;;
31808;SDS011;18379;48.208;-1.518;2022-09-17T17:28:12;44.00;;;41.67;;
31808;SDS011;18379;48.208;-1.518;2022-09-17T17:33:14;45.33;;;42.67;;
31808;SDS011;18379;48.208;-1.518;2022-09-17T17:38:17;45.13;;;42.43;;
31808;SDS011;18379;48.208;-1.518;2022-09-17T17:43:18;45.60;;;42.90;;
31808;SDS011;18379;48.208;-1.518;2022-09-17T17:48:19;46.23;;;43.40;;
31808;SDS011;18379;48.208;-1.518;2022-09-17T17:53:20;46.13;;;43.27;;
31808;SDS011;18379;48.208;-1.518;2022-09-17T17:58:21;48.00;;;45.13;;
31808;SDS011;18379;48.208;-1.518;2022-09-17T18:03:23;44.70;;;42.20;;
31808;SDS011;18379;48.208;-1.518;2022-09-17T18:08:24;44.17;;;41.77;;
31808;SDS011;18379;48.208;-1.518;2022-09-17T18:13:25;49.00;;;45.93;;
31808;SDS011;18379;48.208;-1.518;2022-09-17T18:18:30;44.40;;;41.90;;
31808;SDS011;18379;48.208;-1.518;2022-09-17T18:23:41;42.17;;;39.93;;
31808;SDS011;18379;48.208;-1.518;2022-09-17T18:28:43;41.87;;;39.57;;
31808;SDS011;18379;48.208;-1.518;2022-09-17T18:33:45;44.43;;;42.00;;
31808;SDS011;18379;48.208;-1.518;2022-09-17T18:38:46;44.00;;;41.23;;
31808;SDS011;18379;48.208;-1.518;2022-09-17T18:43:47;44.83;;;42.33;;
31808;SDS011;18379;48.208;-1.518;2022-09-17T18:48:52;46.17;;;43.50;;
31808;SDS011;18379;48.208;-1.518;2022-09-17T18:53:54;44.83;;;42.20;;
31808;SDS011;18379;48.208;-1.518;2022-09-17T18:58:56;47.83;;;44.80;;
31808;SDS011;18379;48.208;-1.518;2022-09-17T19:03:59;43.73;;;41.27;;
31808;SDS011;18379;48.208;-1.518;2022-09-17T19:09:00;43.97;;;41.53;;
31808;SDS011;18379;48.208;-1.518;2022-09-17T19:14:03;42.77;;;40.27;;
31808;SDS011;18379;48.208;-1.518;2022-09-17T19:19:04;42.73;;;40.23;;
31808;SDS011;18379;48.208;-1.518;2022-09-17T19:24:05;41.30;;;39.10;;
31808;SDS011;18379;48.208;-1.518;2022-09-17T19:29:06;41.90;;;39.67;;
31808;SDS011;18379;48.208;-1.518;2022-09-17T19:34:08;43.47;;;40.67;;
31808;SDS011;18379;48.208;-1.518;2022-09-17T19:39:08;45.77;;;42.73;;
31808;SDS011;18379;48.208;-1.518;2022-09-17T19:44:10;45.40;;;42.30;;
31808;SDS011;18379;48.208;-1.518;2022-09-17T19:49:11;43.10;;;40.50;;
31808;SDS011;18379;48.208;-1.518;2022-09-17T19:54:12;44.23;;;41.43;;
31808;SDS011;18379;48.208;-1.518;2022-09-17T19:59:13;42.90;;;40.10;;
31808;SDS011;18379;48.208;-1.518;2022-09-17T20:04:14;41.53;;;39.20;;
31808;SDS011;18379;48.208;-1.518;2022-09-17T20:09:15;41.77;;;39.43;;
31808;SDS011;18379;48.208;-1.518;2022-09-17T20:14:16;42.33;;;40.00;;
31808;SDS011;18379;48.208;-1.518;2022-09-17T20:19:17;42.93;;;40.30;;
31808;SDS011;18379;48.208;-1.518;2022-09-17T20:24:18;42.20;;;39.73;;
31808;SDS011;18379;48.208;-1.518;2022-09-17T20:29:21;43.60;;;40.93;;
31808;SDS011;18379;48.208;-1.518;2022-09-17T20:34:22;42.40;;;40.00;;
31808;SDS011;18379;48.208;-1.518;2022-09-17T20:39:22;44.60;;;42.00;;
31808;SDS011;18379;48.208;-1.518;2022-09-17T20:44:23;44.37;;;41.60;;
31808;SDS011;18379;48.208;-1.518;2022-09-17T20:49:24;44.30;;;41.33;;
31808;SDS011;18379;48.208;-1.518;2022-09-17T20:54:25;42.23;;;39.83;;
31808;SDS011;18379;48.208;-1.518;2022-09-17T20:59:26;43.90;;;41.27;;
31808;SDS011;18379;48.208;-1.518;2022-09-17T21:04:35;40.80;;;38.37;;
31808;SDS011;18379;48.208;-1.518;2022-09-17T21:09:36;40.27;;;37.97;;
31808;SDS011;18379;48.208;-1.518;2022-09-17T21:14:40;40.13;;;37.87;;
31808;SDS011;18379;48.208;-1.518;2022-09-17T21:19:41;39.23;;;37.13;;
31808;SDS011;18379;48.208;-1.518;2022-09-17T21:24:42;39.80;;;37.70;;
31808;SDS011;18379;48.208;-1.518;2022-09-17T21:29:43;41.63;;;39.33;;
31808;SDS011;18379;48.208;-1.518;2022-09-17T21:34:44;39.47;;;37.33;;
31808;SDS011;18379;48.208;-1.518;2022-09-17T21:39:45;39.00;;;36.93;;
31808;SDS011;18379;48.208;-1.518;2022-09-17T21:44:45;39.97;;;37.77;;
31808;SDS011;18379;48.208;-1.518;2022-09-17T21:49:46;41.23;;;39.00;;
31808;SDS011;18379;48.208;-1.518;2022-09-17T21:54:47;41.17;;;38.87;;
31808;SDS011;18379;48.208;-1.518;2022-09-17T21:59:48;41.57;;;39.07;;
31808;SDS011;18379;48.208;-1.518;2022-09-17T22:04:48;40.30;;;38.10;;
31808;SDS011;18379;48.208;-1.518;2022-09-17T22:09:49;41.83;;;39.50;;
31808;SDS011;18379;48.208;-1.518;2022-09-17T22:14:50;41.57;;;39.27;;
31808;SDS011;18379;48.208;-1.518;2022-09-17T22:19:51;42.27;;;39.60;;
31808;SDS011;18379;48.208;-1.518;2022-09-17T22:24:52;40.40;;;37.97;;
31808;SDS011;18379;48.208;-1.518;2022-09-17T22:29:52;41.67;;;39.23;;
31808;SDS011;18379;48.208;-1.518;2022-09-17T22:34:53;41.77;;;39.33;;
31808;SDS011;18379;48.208;-1.518;2022-09-17T22:39:54;44.10;;;41.23;;
31808;SDS011;18379;48.208;-1.518;2022-09-17T22:44:55;41.03;;;38.67;;
31808;SDS011;18379;48.208;-1.518;2022-09-17T22:49:56;44.20;;;41.30;;
31808;SDS011;18379;48.208;-1.518;2022-09-17T22:54:57;43.87;;;41.17;;
31808;SDS011;18379;48.208;-1.518;2022-09-17T22:59:58;44.30;;;41.60;;
31808;SDS011;18379;48.208;-1.518;2022-09-17T23:04:58;42.50;;;40.00;;
31808;SDS011;18379;48.208;-1.518;2022-09-17T23:09:59;43.23;;;40.53;;
31808;SDS011;18379;48.208;-1.518;2022-09-17T23:15:00;42.97;;;40.47;;
31808;SDS011;18379;48.208;-1.518;2022-09-17T23:20:02;41.67;;;39.30;;
31808;SDS011;18379;48.208;-1.518;2022-09-17T23:25:03;42.50;;;39.93;;
31808;SDS011;18379;48.208;-1.518;2022-09-17T23:30:04;39.03;;;36.97;;
31808;SDS011;18379;48.208;-1.518;2022-09-17T23:35:06;40.83;;;38.43;;
31808;SDS011;18379;48.208;-1.518;2022-09-17T23:40:07;39.33;;;37.27;;
31808;SDS011;18379;48.208;-1.518;2022-09-17T23:45:09;39.57;;;37.27;;
31808;SDS011;18379;48.208;-1.518;2022-09-17T23:50:09;38.90;;;36.80;;
31808;SDS011;18379;48.208;-1.518;2022-09-17T23:55:10;38.93;;;36.73;;
